sensor_id;sensor_type;location;lat;lon;timestamp;pressure;altitude;pressure_sealevel;temperature;humidity
62617;BME280;62539;51.190;6.808;2023-04-05T00:01:30;102073.47;;;18.91;49.96
62617;BME280;62539;51.190;6.808;2023-04-05T00:03:58;102070.00;;;18.89;50.13
62617;BME280;62539;51.190;6.808;2023-04-05T00:06:25;102070.06;;;18.86;50.22
62617;BME280;62539;51.190;6.808;2023-04-05T00:09:03;102067.44;;;18.85;50.18
62617;BME280;62539;51.190;6.808;2023-04-05T00:11:31;102061.31;;;18.83;49.88
62617;BME280;62539;51.190;6.808;2023-04-05T00:14:01;102058.75;;;18.79;50.04
62617;BME280;62539;51.190;6.808;2023-04-05T00:16:28;102059.63;;;18.78;50.18
62617;BME280;62539;51.190;6.808;2023-04-05T00:18:57;102056.16;;;18.76;50.13
62617;BME280;62539;51.190;6.808;2023-04-05T00:21:24;102057.06;;;18.75;50.34
62617;BME280;62539;51.190;6.808;2023-04-05T00:23:52;102047.47;;;18.73;50.27
62617;BME280;62539;51.190;6.808;2023-04-05T00:26:24;102050.09;;;18.71;50.33
62617;BME280;62539;51.190;6.808;2023-04-05T00:28:49;102045.78;;;18.69;50.37
62617;BME280;62539;51.190;6.808;2023-04-05T00:31:15;102046.69;;;18.66;50.45
62617;BME280;62539;51.190;6.808;2023-04-05T00:33:42;102053.72;;;18.65;50.33
62617;BME280;62539;51.190;6.808;2023-04-05T00:36:15;102049.34;;;18.63;50.53
62617;BME280;62539;51.190;6.808;2023-04-05T00:38:44;102049.38;;;18.61;50.51
62617;BME280;62539;51.190;6.808;2023-04-05T00:41:11;102052.91;;;18.59;50.35
62617;BME280;62539;51.190;6.808;2023-04-05T00:43:38;102057.31;;;18.57;50.37
62617;BME280;62539;51.190;6.808;2023-04-05T00:46:05;102052.06;;;18.57;50.42
62617;BME280;62539;51.190;6.808;2023-04-05T00:48:32;102044.22;;;18.55;50.54
62617;BME280;62539;51.190;6.808;2023-04-05T00:50:58;102040.75;;;18.55;50.47
62617;BME280;62539;51.190;6.808;2023-04-05T00:53:24;102045.16;;;18.53;50.73
62617;BME280;62539;51.190;6.808;2023-04-05T00:55:54;102041.66;;;18.50;50.69
62617;BME280;62539;51.190;6.808;2023-04-05T00:58:21;102044.31;;;18.50;50.44
62617;BME280;62539;51.190;6.808;2023-04-05T01:03:46;102040.88;;;18.45;51.05
62617;BME280;62539;51.190;6.808;2023-04-05T01:09:23;102038.28;;;18.42;50.76
62617;BME280;62539;51.190;6.808;2023-04-05T01:11:56;102037.44;;;18.40;50.73
62617;BME280;62539;51.190;6.808;2023-04-05T01:14:25;102043.56;;;18.39;50.63
62617;BME280;62539;51.190;6.808;2023-04-05T01:16:50;102041.84;;;18.38;50.58
62617;BME280;62539;51.190;6.808;2023-04-05T01:19:25;102034.84;;;18.37;50.75
62617;BME280;62539;51.190;6.808;2023-04-05T01:25:53;102020.91;;;18.32;50.73
62617;BME280;62539;51.190;6.808;2023-04-05T01:28:44;102026.16;;;18.30;50.84
62617;BME280;62539;51.190;6.808;2023-04-05T01:31:40;102021.84;;;18.28;50.72
62617;BME280;62539;51.190;6.808;2023-04-05T01:34:44;102021.84;;;18.28;50.87
62617;BME280;62539;51.190;6.808;2023-04-05T01:37:17;102015.72;;;18.26;50.85
62617;BME280;62539;51.190;6.808;2023-04-05T01:39:48;102021.88;;;18.25;50.92
62617;BME280;62539;51.190;6.808;2023-04-05T01:42:16;102024.50;;;18.25;51.21
62617;BME280;62539;51.190;6.808;2023-04-05T01:44:55;102018.38;;;18.26;51.19
62617;BME280;62539;51.190;6.808;2023-04-05T01:47:21;102021.88;;;18.25;51.08
62617;BME280;62539;51.190;6.808;2023-04-05T01:49:47;102021.00;;;18.26;51.25
62617;BME280;62539;51.190;6.808;2023-04-05T01:52:12;102014.00;;;18.25;51.03
62617;BME280;62539;51.190;6.808;2023-04-05T01:54:38;102007.00;;;18.24;51.09
62617;BME280;62539;51.190;6.808;2023-04-05T01:57:04;102005.22;;;18.24;51.10
62617;BME280;62539;51.190;6.808;2023-04-05T01:59:30;102007.84;;;18.24;51.08
62617;BME280;62539;51.190;6.808;2023-04-05T02:01:55;102008.75;;;18.25;51.13
62617;BME280;62539;51.190;6.808;2023-04-05T02:04:21;102003.50;;;18.25;51.09
62617;BME280;62539;51.190;6.808;2023-04-05T02:06:46;102008.75;;;18.25;51.18
62617;BME280;62539;51.190;6.808;2023-04-05T02:09:12;102007.00;;;18.24;51.01
62617;BME280;62539;51.190;6.808;2023-04-05T02:11:37;102007.00;;;18.24;51.02
62617;BME280;62539;51.190;6.808;2023-04-05T02:14:03;102003.53;;;18.21;51.07
62617;BME280;62539;51.190;6.808;2023-04-05T02:16:28;102000.03;;;18.21;51.08
62617;BME280;62539;51.190;6.808;2023-04-05T02:18:57;101999.16;;;18.20;51.04
62617;BME280;62539;51.190;6.808;2023-04-05T02:21:24;101994.81;;;18.19;50.98
62617;BME280;62539;51.190;6.808;2023-04-05T02:23:51;101998.31;;;18.18;51.20
62617;BME280;62539;51.190;6.808;2023-04-05T02:26:19;102001.81;;;18.19;51.24
62617;BME280;62539;51.190;6.808;2023-04-05T02:28:45;102004.47;;;18.17;50.87
62617;BME280;62539;51.190;6.808;2023-04-05T02:31:11;102003.56;;;18.17;51.13
62617;BME280;62539;51.190;6.808;2023-04-05T02:33:38;102005.34;;;18.16;50.95
62617;BME280;62539;51.190;6.808;2023-04-05T02:36:06;102007.97;;;18.16;50.97
62617;BME280;62539;51.190;6.808;2023-04-05T02:38:33;102001.88;;;18.14;51.19
62617;BME280;62539;51.190;6.808;2023-04-05T02:41:00;102000.13;;;18.13;51.02
62617;BME280;62539;51.190;6.808;2023-04-05T02:43:25;101994.03;;;18.11;51.14
62617;BME280;62539;51.190;6.808;2023-04-05T02:45:51;102000.19;;;18.10;51.08
62617;BME280;62539;51.190;6.808;2023-04-05T02:48:16;101991.41;;;18.10;51.05
62617;BME280;62539;51.190;6.808;2023-04-05T02:50:47;102000.22;;;18.07;51.08
62617;BME280;62539;51.190;6.808;2023-04-05T02:53:13;101992.34;;;18.05;51.17
62617;BME280;62539;51.190;6.808;2023-04-05T02:55:39;102000.25;;;18.04;51.11
62617;BME280;62539;51.190;6.808;2023-04-05T02:58:06;101998.53;;;18.03;51.23
62617;BME280;62539;51.190;6.808;2023-04-05T03:00:32;101994.16;;;18.02;51.20
62617;BME280;62539;51.190;6.808;2023-04-05T03:02:58;101996.78;;;18.00;51.24
62617;BME280;62539;51.190;6.808;2023-04-05T03:05:23;101992.38;;;17.99;51.21
62617;BME280;62539;51.190;6.808;2023-04-05T03:07:49;101990.69;;;17.97;51.25
62617;BME280;62539;51.190;6.808;2023-04-05T03:10:16;102006.41;;;17.98;51.48
62617;BME280;62539;51.190;6.808;2023-04-05T03:12:46;101991.56;;;17.96;51.31
62617;BME280;62539;51.190;6.808;2023-04-05T03:15:11;101988.06;;;17.95;51.17
62617;BME280;62539;51.190;6.808;2023-04-05T03:17:36;101984.63;;;17.91;51.08
62617;BME280;62539;51.190;6.808;2023-04-05T03:20:03;101988.13;;;17.90;51.47
62617;BME280;62539;51.190;6.808;2023-04-05T03:22:33;101989.91;;;17.88;51.30
62617;BME280;62539;51.190;6.808;2023-04-05T03:24:58;101993.44;;;17.87;51.37
62617;BME280;62539;51.190;6.808;2023-04-05T03:27:24;101989.94;;;17.85;51.46
62617;BME280;62539;51.190;6.808;2023-04-05T03:29:51;101990.84;;;17.84;51.51
62617;BME280;62539;51.190;6.808;2023-04-05T03:32:16;101988.22;;;17.83;51.26
62617;BME280;62539;51.190;6.808;2023-04-05T03:34:42;101978.63;;;17.80;51.64
62617;BME280;62539;51.190;6.808;2023-04-05T03:37:08;101990.88;;;17.81;51.37
62617;BME280;62539;51.190;6.808;2023-04-05T03:39:33;101979.41;;;17.87;51.41
62617;BME280;62539;51.190;6.808;2023-04-05T03:41:59;101979.31;;;17.98;51.04
62617;BME280;62539;51.190;6.808;2023-04-05T03:44:25;101987.00;;;18.12;51.08
62617;BME280;62539;51.190;6.808;2023-04-05T03:46:50;101975.44;;;18.27;50.56
62617;BME280;62539;51.190;6.808;2023-04-05T03:49:16;101978.75;;;18.41;50.27
62617;BME280;62539;51.190;6.808;2023-04-05T03:51:41;101972.41;;;18.55;49.93
62617;BME280;62539;51.190;6.808;2023-04-05T03:54:07;101972.19;;;18.67;49.65
62617;BME280;62539;51.190;6.808;2023-04-05T03:56:32;101971.16;;;18.77;49.27
62617;BME280;62539;51.190;6.808;2023-04-05T03:58:57;101972.78;;;18.85;49.26
62617;BME280;62539;51.190;6.808;2023-04-05T04:01:23;101966.56;;;18.89;49.17
62617;BME280;62539;51.190;6.808;2023-04-05T04:03:48;101969.16;;;18.92;48.99
62617;BME280;62539;51.190;6.808;2023-04-05T04:06:14;101969.16;;;18.92;49.08
62617;BME280;62539;51.190;6.808;2023-04-05T04:08:40;101969.16;;;18.93;49.18
62617;BME280;62539;51.190;6.808;2023-04-05T04:11:05;101982.28;;;18.97;48.88
62617;BME280;62539;51.190;6.808;2023-04-05T04:13:31;101976.91;;;19.01;48.98
62617;BME280;62539;51.190;6.808;2023-04-05T04:15:56;101975.91;;;19.08;48.51
62617;BME280;62539;51.190;6.808;2023-04-05T04:18:22;101974.06;;;19.15;48.53
62617;BME280;62539;51.190;6.808;2023-04-05T04:20:48;101965.16;;;19.22;48.35
62617;BME280;62539;51.190;6.808;2023-04-05T04:23:13;101970.28;;;19.30;47.96
62617;BME280;62539;51.190;6.808;2023-04-05T04:25:40;101977.16;;;19.37;48.19
62617;BME280;62539;51.190;6.808;2023-04-05T04:28:10;101980.50;;;19.46;47.74
62617;BME280;62539;51.190;6.808;2023-04-05T04:30:37;101969.00;;;19.51;47.67
62617;BME280;62539;51.190;6.808;2023-04-05T04:33:03;101978.47;;;19.60;47.55
62617;BME280;62539;51.190;6.808;2023-04-05T04:35:31;101971.34;;;19.67;47.36
62617;BME280;62539;51.190;6.808;2023-04-05T04:38:06;101977.31;;;19.75;47.13
62617;BME280;62539;51.190;6.808;2023-04-05T04:40:36;101968.34;;;19.84;46.98
62617;BME280;62539;51.190;6.808;2023-04-05T04:43:10;101971.69;;;19.94;46.68
62617;BME280;62539;51.190;6.808;2023-04-05T04:45:39;101969.78;;;20.02;46.47
62617;BME280;62539;51.190;6.808;2023-04-05T04:48:05;101965.22;;;20.09;46.36
62617;BME280;62539;51.190;6.808;2023-04-05T04:50:32;101964.19;;;20.16;46.22
62617;BME280;62539;51.190;6.808;2023-04-05T04:52:58;101978.16;;;20.20;46.17
62617;BME280;62539;51.190;6.808;2023-04-05T04:55:26;101976.38;;;20.20;46.18
62617;BME280;62539;51.190;6.808;2023-04-05T04:57:52;101980.81;;;20.18;46.27
62617;BME280;62539;51.190;6.808;2023-04-05T05:00:19;101976.44;;;20.17;46.16
62617;BME280;62539;51.190;6.808;2023-04-05T05:02:46;101980.81;;;20.18;46.16
62617;BME280;62539;51.190;6.808;2023-04-05T05:05:12;101977.22;;;20.22;46.11
62617;BME280;62539;51.190;6.808;2023-04-05T05:07:39;101977.06;;;20.29;46.08
62617;BME280;62539;51.190;6.808;2023-04-05T05:10:06;101984.91;;;20.33;45.88
62617;BME280;62539;51.190;6.808;2023-04-05T05:12:33;101980.41;;;20.37;45.86
62617;BME280;62539;51.190;6.808;2023-04-05T05:14:58;101987.41;;;20.38;45.76
62617;BME280;62539;51.190;6.808;2023-04-05T05:17:24;101977.78;;;20.37;45.54
62617;BME280;62539;51.190;6.808;2023-04-05T05:19:50;101981.34;;;20.34;45.74
62617;BME280;62539;51.190;6.808;2023-04-05T05:22:16;101986.66;;;20.33;45.82
62617;BME280;62539;51.190;6.808;2023-04-05T05:24:43;101978.69;;;20.36;45.71
62617;BME280;62539;51.190;6.808;2023-04-05T05:27:09;101978.59;;;20.39;45.82
62617;BME280;62539;51.190;6.808;2023-04-05T05:29:34;101981.97;;;20.46;45.68
62617;BME280;62539;51.190;6.808;2023-04-05T05:31:59;101979.22;;;20.50;45.56
62617;BME280;62539;51.190;6.808;2023-04-05T05:34:25;101972.97;;;20.54;45.45
62617;BME280;62539;51.190;6.808;2023-04-05T05:36:51;101976.44;;;20.56;45.78
62617;BME280;62539;51.190;6.808;2023-04-05T05:39:17;101979.06;;;20.58;45.78
62617;BME280;62539;51.190;6.808;2023-04-05T05:41:43;101979.91;;;20.59;45.78
62617;BME280;62539;51.190;6.808;2023-04-05T05:44:09;101983.44;;;20.58;45.50
62617;BME280;62539;51.190;6.808;2023-04-05T05:46:34;101986.84;;;20.63;45.59
62617;BME280;62539;51.190;6.808;2023-04-05T05:49:00;101978.84;;;20.67;45.54
62617;BME280;62539;51.190;6.808;2023-04-05T05:51:25;101980.44;;;20.73;45.48
62617;BME280;62539;51.190;6.808;2023-04-05T05:53:50;101977.72;;;20.76;45.24
62617;BME280;62539;51.190;6.808;2023-04-05T05:56:16;101976.81;;;20.79;45.00
62617;BME280;62539;51.190;6.808;2023-04-05T05:58:41;101976.81;;;20.79;45.23
62617;BME280;62539;51.190;6.808;2023-04-05T06:01:07;101992.69;;;20.76;45.14
62617;BME280;62539;51.190;6.808;2023-04-05T06:03:32;101981.34;;;20.72;45.36
62617;BME280;62539;51.190;6.808;2023-04-05T06:05:58;101985.84;;;20.68;45.53
62617;BME280;62539;51.190;6.808;2023-04-05T06:08:27;101990.31;;;20.65;45.45
62617;BME280;62539;51.190;6.808;2023-04-05T06:10:52;101984.13;;;20.66;45.46
62617;BME280;62539;51.190;6.808;2023-04-05T06:13:18;101980.56;;;20.68;45.51
62617;BME280;62539;51.190;6.808;2023-04-05T06:15:46;101980.44;;;20.73;45.42
62617;BME280;62539;51.190;6.808;2023-04-05T06:18:12;101979.47;;;20.77;45.16
62617;BME280;62539;51.190;6.808;2023-04-05T06:20:37;101977.59;;;20.82;45.21
62617;BME280;62539;51.190;6.808;2023-04-05T06:23:05;101981.00;;;20.88;45.16
62617;BME280;62539;51.190;6.808;2023-04-05T06:25:31;101975.56;;;20.94;44.98
62617;BME280;62539;51.190;6.808;2023-04-05T06:27:57;101985.97;;;21.00;44.92
62617;BME280;62539;51.190;6.808;2023-04-05T06:30:22;101987.53;;;21.07;44.60
62617;BME280;62539;51.190;6.808;2023-04-05T06:32:48;101976.81;;;21.13;44.58
62617;BME280;62539;51.190;6.808;2023-04-05T06:35:21;101984.50;;;21.21;44.19
62617;BME280;62539;51.190;6.808;2023-04-05T06:37:47;101981.69;;;21.29;44.11
62617;BME280;62539;51.190;6.808;2023-04-05T06:40:13;101983.25;;;21.36;43.76
62617;BME280;62539;51.190;6.808;2023-04-05T06:42:39;101984.91;;;21.40;43.70
62617;BME280;62539;51.190;6.808;2023-04-05T06:45:05;101980.47;;;21.41;43.63
62617;BME280;62539;51.190;6.808;2023-04-05T06:47:38;101984.91;;;21.40;43.81
62617;BME280;62539;51.190;6.808;2023-04-05T06:50:06;101983.19;;;21.38;43.91
62617;BME280;62539;51.190;6.808;2023-04-05T06:52:33;101977.97;;;21.36;43.79
62617;BME280;62539;51.190;6.808;2023-04-05T06:54:59;101981.44;;;21.38;43.68
62617;BME280;62539;51.190;6.808;2023-04-05T06:57:25;101981.34;;;21.41;43.63
62617;BME280;62539;51.190;6.808;2023-04-05T06:59:52;101989.19;;;21.44;43.69
62617;BME280;62539;51.190;6.808;2023-04-05T07:02:19;101988.28;;;21.46;43.54
62617;BME280;62539;51.190;6.808;2023-04-05T07:04:45;101980.38;;;21.44;43.41
62617;BME280;62539;51.190;6.808;2023-04-05T07:07:11;101981.34;;;21.41;43.74
62617;BME280;62539;51.190;6.808;2023-04-05T07:09:37;101976.97;;;21.40;43.58
62617;BME280;62539;51.190;6.808;2023-04-05T07:12:05;101968.16;;;21.41;43.62
62617;BME280;62539;51.190;6.808;2023-04-05T07:14:33;101967.25;;;21.42;43.50
62617;BME280;62539;51.190;6.808;2023-04-05T07:17:00;101962.69;;;21.48;43.51
62617;BME280;62539;51.190;6.808;2023-04-05T07:19:25;101969.63;;;21.52;43.19
62617;BME280;62539;51.190;6.808;2023-04-05T07:21:51;101967.75;;;21.55;43.27
62617;BME280;62539;51.190;6.808;2023-04-05T07:24:17;101957.91;;;21.62;43.58
62617;BME280;62539;51.190;6.808;2023-04-05T07:26:43;101966.59;;;21.67;43.27
62617;BME280;62539;51.190;6.808;2023-04-05T07:29:10;101966.41;;;21.73;43.01
62617;BME280;62539;51.190;6.808;2023-04-05T07:31:38;101966.25;;;21.78;42.48
62617;BME280;62539;51.190;6.808;2023-04-05T07:34:04;101976.78;;;21.80;42.19
62617;BME280;62539;51.190;6.808;2023-04-05T07:36:30;101974.19;;;21.78;42.61
62617;BME280;62539;51.190;6.808;2023-04-05T07:38:56;101962.84;;;21.75;42.79
62617;BME280;62539;51.190;6.808;2023-04-05T07:41:24;101968.22;;;21.71;42.50
62617;BME280;62539;51.190;6.808;2023-04-05T07:43:50;101970.03;;;21.69;42.61
62617;BME280;62539;51.190;6.808;2023-04-05T07:46:16;101970.03;;;21.69;42.54
62617;BME280;62539;51.190;6.808;2023-04-05T07:48:41;101969.13;;;21.70;42.22
62617;BME280;62539;51.190;6.808;2023-04-05T07:51:08;101966.41;;;21.73;42.35
62617;BME280;62539;51.190;6.808;2023-04-05T07:53:35;101969.78;;;21.79;42.35
62617;BME280;62539;51.190;6.808;2023-04-05T07:56:10;101974.06;;;21.83;42.22
62617;BME280;62539;51.190;6.808;2023-04-05T07:58:40;101971.31;;;21.86;42.71
62617;BME280;62539;51.190;6.808;2023-04-05T08:01:07;101971.31;;;21.86;42.75
62617;BME280;62539;51.190;6.808;2023-04-05T08:03:35;101966.97;;;21.85;42.36
62617;BME280;62539;51.190;6.808;2023-04-05T08:06:13;101972.34;;;21.82;43.31
62617;BME280;62539;51.190;6.808;2023-04-05T08:08:42;101974.19;;;21.78;42.05
62617;BME280;62539;51.190;6.808;2023-04-05T08:11:08;101972.63;;;21.71;39.54
62617;BME280;62539;51.190;6.808;2023-04-05T08:13:34;101969.31;;;21.64;37.79
62617;BME280;62539;51.190;6.808;2023-04-05T08:16:01;101973.81;;;21.59;37.34
62617;BME280;62539;51.190;6.808;2023-04-05T08:18:26;101980.03;;;21.56;36.89
62617;BME280;62539;51.190;6.808;2023-04-05T08:20:55;101981.00;;;21.54;36.38
62617;BME280;62539;51.190;6.808;2023-04-05T08:23:22;101974.09;;;21.50;35.02
62617;BME280;62539;51.190;6.808;2023-04-05T08:25:47;101974.25;;;21.43;34.15
62617;BME280;62539;51.190;6.808;2023-04-05T08:28:13;101965.59;;;21.38;33.33
62617;BME280;62539;51.190;6.808;2023-04-05T08:30:39;101972.78;;;21.33;32.96
62617;BME280;62539;51.190;6.808;2023-04-05T08:33:05;101973.78;;;21.27;32.56
62617;BME280;62539;51.190;6.808;2023-04-05T08:35:31;101965.13;;;21.22;32.06
62617;BME280;62539;51.190;6.808;2023-04-05T08:37:57;101967.91;;;21.18;31.86
62617;BME280;62539;51.190;6.808;2023-04-05T08:40:39;101968.00;;;21.14;31.90
62617;BME280;62539;51.190;6.808;2023-04-05T08:43:12;101961.03;;;21.12;32.45
62617;BME280;62539;51.190;6.808;2023-04-05T08:45:48;101968.00;;;21.14;33.02
62617;BME280;62539;51.190;6.808;2023-04-05T08:48:16;101963.53;;;21.17;33.50
62617;BME280;62539;51.190;6.808;2023-04-05T08:50:51;101963.31;;;21.24;34.11
62617;BME280;62539;51.190;6.808;2023-04-05T08:53:17;101960.50;;;21.32;34.17
62617;BME280;62539;51.190;6.808;2023-04-05T08:55:49;101961.97;;;21.42;34.34
62617;BME280;62539;51.190;6.808;2023-04-05T08:58:20;101963.44;;;21.53;34.67
62617;BME280;62539;51.190;6.808;2023-04-05T09:00:46;101961.38;;;21.64;34.86
62617;BME280;62539;51.190;6.808;2023-04-05T09:03:17;101961.88;;;21.77;35.08
62617;BME280;62539;51.190;6.808;2023-04-05T09:05:51;101964.13;;;21.91;34.79
62617;BME280;62539;51.190;6.808;2023-04-05T09:08:18;101955.78;;;22.05;34.68
62617;BME280;62539;51.190;6.808;2023-04-05T09:10:49;101951.75;;;22.22;34.51
62617;BME280;62539;51.190;6.808;2023-04-05T09:13:18;101956.59;;;22.36;34.72
62617;BME280;62539;51.190;6.808;2023-04-05T09:15:43;101957.97;;;22.49;34.57
62617;BME280;62539;51.190;6.808;2023-04-05T09:18:11;101955.78;;;22.62;34.65
62617;BME280;62539;51.190;6.808;2023-04-05T09:20:37;101949.25;;;22.72;34.51
62617;BME280;62539;51.190;6.808;2023-04-05T09:23:02;101948.91;;;22.83;34.40
62617;BME280;62539;51.190;6.808;2023-04-05T09:27:57;101951.84;;;23.01;34.50
62617;BME280;62539;51.190;6.808;2023-04-05T09:30:24;101943.63;;;23.09;34.23
62617;BME280;62539;51.190;6.808;2023-04-05T09:32:52;101946.88;;;23.17;34.40
62617;BME280;62539;51.190;6.808;2023-04-05T09:35:23;101945.72;;;23.26;34.17
62617;BME280;62539;51.190;6.808;2023-04-05T09:37:58;101950.56;;;23.38;34.64
62617;BME280;62539;51.190;6.808;2023-04-05T09:40:42;101944.72;;;23.54;34.66
62617;BME280;62539;51.190;6.808;2023-04-05T09:43:34;101943.25;;;23.69;34.43
62617;BME280;62539;51.190;6.808;2023-04-05T09:46:06;101941.81;;;23.84;34.45
62617;BME280;62539;51.190;6.808;2023-04-05T09:48:47;101939.47;;;23.98;33.93
62617;BME280;62539;51.190;6.808;2023-04-05T09:51:17;101943.34;;;24.13;34.20
62617;BME280;62539;51.190;6.808;2023-04-05T09:54:15;101936.53;;;24.28;33.72
62617;BME280;62539;51.190;6.808;2023-04-05T09:56:53;101937.66;;;24.45;33.71
62617;BME280;62539;51.190;6.808;2023-04-05T09:59:20;101931.69;;;24.60;33.44
62617;BME280;62539;51.190;6.808;2023-04-05T10:01:50;101936.34;;;24.77;33.58
62617;BME280;62539;51.190;6.808;2023-04-05T10:04:18;101940.91;;;24.94;33.25
62617;BME280;62539;51.190;6.808;2023-04-05T10:06:44;101940.19;;;25.12;33.14
62617;BME280;62539;51.190;6.808;2023-04-05T10:09:10;101937.56;;;25.31;32.85
62617;BME280;62539;51.190;6.808;2023-04-05T10:11:37;101936.75;;;25.49;32.70
62617;BME280;62539;51.190;6.808;2023-04-05T10:14:05;101941.06;;;25.71;32.53
62617;BME280;62539;51.190;6.808;2023-04-05T10:16:36;101935.63;;;25.93;32.39
62617;BME280;62539;51.190;6.808;2023-04-05T10:19:13;101931.97;;;26.13;31.77
62617;BME280;62539;51.190;6.808;2023-04-05T10:21:45;101926.72;;;26.31;31.71
62617;BME280;62539;51.190;6.808;2023-04-05T10:24:24;101925.03;;;26.48;31.92
62617;BME280;62539;51.190;6.808;2023-04-05T10:27:08;101918.84;;;26.65;31.38
62617;BME280;62539;51.190;6.808;2023-04-05T10:29:49;101919.91;;;26.78;31.62
62617;BME280;62539;51.190;6.808;2023-04-05T10:32:51;101914.94;;;26.90;31.17
62617;BME280;62539;51.190;6.808;2023-04-05T10:35:34;101921.28;;;27.05;30.99
62617;BME280;62539;51.190;6.808;2023-04-05T10:40:38;101916.69;;;27.24;31.00
62617;BME280;62539;51.190;6.808;2023-04-05T10:43:15;101907.25;;;27.35;31.03
62617;BME280;62539;51.190;6.808;2023-04-05T10:45:47;101915.59;;;27.44;30.93
62617;BME280;62539;51.190;6.808;2023-04-05T10:48:36;101912.53;;;27.52;30.81
62617;BME280;62539;51.190;6.808;2023-04-05T10:51:10;101905.66;;;27.64;30.75
62617;BME280;62539;51.190;6.808;2023-04-05T10:53:36;101895.53;;;27.71;30.74
62617;BME280;62539;51.190;6.808;2023-04-05T10:56:03;101894.06;;;27.81;30.52
62617;BME280;62539;51.190;6.808;2023-04-05T10:58:30;101895.44;;;27.88;30.53
62617;BME280;62539;51.190;6.808;2023-04-05T11:00:57;101887.09;;;27.95;30.52
62617;BME280;62539;51.190;6.808;2023-04-05T11:03:49;101895.69;;;28.00;30.37
62617;BME280;62539;51.190;6.808;2023-04-05T11:08:42;101888.75;;;28.12;30.46
62617;BME280;62539;51.190;6.808;2023-04-05T11:11:08;101878.81;;;28.15;30.24
62617;BME280;62539;51.190;6.808;2023-04-05T11:13:54;101876.75;;;28.21;30.21
62617;BME280;62539;51.190;6.808;2023-04-05T11:16:21;101872.59;;;28.31;30.17
62617;BME280;62539;51.190;6.808;2023-04-05T11:19:02;101873.00;;;28.39;30.02
62617;BME280;62539;51.190;6.808;2023-04-05T11:21:28;101872.50;;;28.47;29.90
62617;BME280;62539;51.190;6.808;2023-04-05T11:24:06;101876.47;;;28.56;29.92
62617;BME280;62539;51.190;6.808;2023-04-05T11:26:51;101866.53;;;28.58;29.76
62617;BME280;62539;51.190;6.808;2023-04-05T11:29:44;101874.06;;;28.66;29.83
62617;BME280;62539;51.190;6.808;2023-04-05T11:32:11;101871.56;;;28.79;29.51
62617;BME280;62539;51.190;6.808;2023-04-05T11:34:40;101870.03;;;28.89;29.62
62617;BME280;62539;51.190;6.808;2023-04-05T11:37:07;101877.66;;;28.81;29.71
62617;BME280;62539;51.190;6.808;2023-04-05T11:39:33;101872.16;;;28.98;27.67
62617;BME280;62539;51.190;6.808;2023-04-05T11:42:07;101875.09;;;28.94;25.10
62617;BME280;62539;51.190;6.808;2023-04-05T11:47:16;101864.69;;;28.89;24.86
62617;BME280;62539;51.190;6.808;2023-04-05T11:49:42;101857.16;;;28.96;25.38
62617;BME280;62539;51.190;6.808;2023-04-05T11:52:16;101846.78;;;29.06;25.70
62617;BME280;62539;51.190;6.808;2023-04-05T11:54:43;101846.19;;;29.15;26.05
62617;BME280;62539;51.190;6.808;2023-04-05T11:57:22;101851.03;;;29.08;26.21
62617;BME280;62539;51.190;6.808;2023-04-05T11:59:49;101842.34;;;29.19;26.29
62617;BME280;62539;51.190;6.808;2023-04-05T12:02:16;101851.78;;;29.25;26.67
62617;BME280;62539;51.190;6.808;2023-04-05T12:04:41;101846.91;;;29.31;26.92
62617;BME280;62539;51.190;6.808;2023-04-05T12:07:17;101848.25;;;29.39;27.08
62617;BME280;62539;51.190;6.808;2023-04-05T12:10:07;101841.00;;;29.41;27.36
62617;BME280;62539;51.190;6.808;2023-04-05T12:12:36;101836.75;;;29.51;27.52
62617;BME280;62539;51.190;6.808;2023-04-05T12:15:05;101834.44;;;29.59;27.14
62617;BME280;62539;51.190;6.808;2023-04-05T12:17:48;101832.13;;;29.68;27.09
62617;BME280;62539;51.190;6.808;2023-04-05T12:20:16;101834.41;;;29.74;27.25
62617;BME280;62539;51.190;6.808;2023-04-05T12:22:46;101817.00;;;29.81;27.18
62617;BME280;62539;51.190;6.808;2023-04-05T12:25:14;101820.00;;;29.89;27.40
62617;BME280;62539;51.190;6.808;2023-04-05T12:27:41;101812.31;;;29.98;27.16
62617;BME280;62539;51.190;6.808;2023-04-05T12:30:17;101811.09;;;30.03;27.30
62617;BME280;62539;51.190;6.808;2023-04-05T12:35:20;101806.28;;;30.09;27.28
62617;BME280;62539;51.190;6.808;2023-04-05T12:37:51;101809.59;;;30.12;27.32
62617;BME280;62539;51.190;6.808;2023-04-05T12:40:21;101807.47;;;30.17;27.30
62617;BME280;62539;51.190;6.808;2023-04-05T12:42:47;101802.03;;;30.19;27.17
62617;BME280;62539;51.190;6.808;2023-04-05T12:45:13;101801.69;;;30.24;27.05
62617;BME280;62539;51.190;6.808;2023-04-05T12:47:48;101800.72;;;30.25;27.31
62617;BME280;62539;51.190;6.808;2023-04-05T12:50:28;101798.94;;;30.25;27.29
62617;BME280;62539;51.190;6.808;2023-04-05T12:52:59;101801.69;;;30.24;27.15
62617;BME280;62539;51.190;6.808;2023-04-05T12:55:29;101797.31;;;30.23;27.31
62617;BME280;62539;51.190;6.808;2023-04-05T12:57:58;101787.34;;;30.25;27.23
62617;BME280;62539;51.190;6.808;2023-04-05T13:00:26;101782.00;;;30.25;27.49
62617;BME280;62539;51.190;6.808;2023-04-05T13:02:55;101779.84;;;30.30;27.10
62617;BME280;62539;51.190;6.808;2023-04-05T13:05:26;101779.44;;;30.36;27.11
62617;BME280;62539;51.190;6.808;2023-04-05T13:07:53;101773.88;;;30.39;26.97
62617;BME280;62539;51.190;6.808;2023-04-05T13:10:19;101777.19;;;30.43;27.27
62617;BME280;62539;51.190;6.808;2023-04-05T13:12:45;101776.13;;;30.45;27.05
62617;BME280;62539;51.190;6.808;2023-04-05T13:15:12;101773.22;;;30.48;27.02
62617;BME280;62539;51.190;6.808;2023-04-05T13:17:39;101776.44;;;30.54;26.81
62617;BME280;62539;51.190;6.808;2023-04-05T13:20:09;101761.84;;;30.58;26.72
62617;BME280;62539;51.190;6.808;2023-04-05T13:22:36;101762.56;;;30.61;27.12